createdAt,value
2018-04-22T00:01:19.885Z,17.80
2018-04-22T00:03:45.981Z,16.77
2018-04-22T00:06:12.430Z,17.50
2018-04-22T00:08:38.489Z,17.90
2018-04-22T00:11:05.260Z,17.10
2018-04-22T00:13:31.298Z,18.73
2018-04-22T00:15:57.500Z,17.13
2018-04-22T00:18:23.741Z,19.07
2018-04-22T00:20:49.774Z,18.83
2018-04-22T00:23:15.799Z,17.13
2018-04-22T00:25:41.828Z,18.00
2018-04-22T00:28:07.854Z,18.47
2018-04-22T00:30:33.933Z,18.23
2018-04-22T00:32:59.990Z,18.00
2018-04-22T00:35:26.002Z,19.17
2018-04-22T00:37:52.022Z,19.20
2018-04-22T00:40:18.049Z,18.30
2018-04-22T00:42:44.093Z,18.20
2018-04-22T00:45:10.148Z,18.67
2018-04-22T00:47:36.168Z,18.60
2018-04-22T00:50:02.316Z,17.67
2018-04-22T00:52:28.348Z,18.43
2018-04-22T00:54:54.389Z,19.10
2018-04-22T00:57:20.424Z,18.97
2018-04-22T00:59:46.453Z,19.80
2018-04-22T01:02:12.498Z,17.63
2018-04-22T01:04:39.325Z,19.00
2018-04-22T01:07:05.333Z,18.80
2018-04-22T01:09:31.417Z,19.00
2018-04-22T01:11:57.457Z,18.63
2018-04-22T01:14:23.490Z,19.30
2018-04-22T01:16:49.617Z,18.90
2018-04-22T01:19:16.048Z,19.57
2018-04-22T01:21:42.127Z,18.87
2018-04-22T01:24:08.136Z,19.10
2018-04-22T01:26:34.924Z,18.03
2018-04-22T01:29:00.932Z,19.07
2018-04-22T01:31:26.974Z,19.27
2018-04-22T01:33:53.393Z,18.23
2018-04-22T01:36:19.422Z,19.63
2018-04-22T01:38:45.472Z,18.10
2018-04-22T01:41:11.537Z,19.03
2018-04-22T01:43:37.689Z,18.33
2018-04-22T01:46:03.750Z,19.67
2018-04-22T01:48:29.802Z,19.40
2018-04-22T01:50:55.816Z,19.50
2018-04-22T01:53:21.853Z,19.27
2018-04-22T01:55:47.886Z,18.97
2018-04-22T01:58:14.693Z,19.70
2018-04-22T02:00:41.094Z,19.53
2018-04-22T02:03:07.144Z,19.13
2018-04-22T02:05:33.204Z,18.60
2018-04-22T02:07:59.965Z,18.97
2018-04-22T02:10:25.989Z,18.17
2018-04-22T02:12:52.033Z,18.83
2018-04-22T02:15:18.084Z,20.37
2018-04-22T02:17:44.136Z,19.93
2018-04-22T02:20:10.309Z,20.07
2018-04-22T02:22:36.335Z,18.53
2018-04-22T02:25:02.400Z,19.80
2018-04-22T02:27:28.423Z,18.27
2018-04-22T02:29:54.601Z,19.50
2018-04-22T02:32:20.637Z,18.50
2018-04-22T02:34:46.666Z,19.83
2018-04-22T02:37:12.949Z,19.97
2018-04-22T02:39:39.697Z,19.73
2018-04-22T02:42:05.785Z,19.10
2018-04-22T02:44:31.916Z,20.70
2018-04-22T02:46:57.965Z,19.53
2018-04-22T02:49:23.978Z,19.97
2018-04-22T02:51:50.000Z,19.57
2018-04-22T02:54:16.096Z,19.43
2018-04-22T02:56:42.717Z,20.37
2018-04-22T02:59:09.176Z,18.87
2018-04-22T03:01:35.979Z,21.23
2018-04-22T03:04:02.017Z,20.43
2018-04-22T03:06:28.065Z,19.93
2018-04-22T03:08:54.141Z,22.00
2018-04-22T03:11:20.174Z,20.33
2018-04-22T03:13:46.173Z,20.23
2018-04-22T03:16:12.179Z,21.63
2018-04-22T03:18:38.225Z,20.67
2018-04-22T03:21:04.764Z,21.60
2018-04-22T03:23:30.809Z,21.67
2018-04-22T03:25:56.837Z,20.50
2018-04-22T03:28:22.929Z,21.43
2018-04-22T03:30:49.736Z,22.13
2018-04-22T03:33:16.841Z,21.83
2018-04-22T03:35:42.878Z,21.47
2018-04-22T03:38:08.901Z,22.87
2018-04-22T03:40:34.913Z,22.63
2018-04-22T03:43:00.950Z,22.00
2018-04-22T03:45:27.699Z,21.73
2018-04-22T03:47:53.722Z,22.07
2018-04-22T03:50:19.825Z,22.63
2018-04-22T03:52:46.589Z,22.20
2018-04-22T03:55:12.598Z,22.20
2018-04-22T03:57:38.793Z,23.43
2018-04-22T04:00:04.846Z,21.80
2018-04-22T04:02:30.861Z,22.67
2018-04-22T04:04:56.862Z,21.47
2018-04-22T04:07:22.893Z,23.77
2018-04-22T04:09:49.453Z,22.43
2018-04-22T04:12:15.505Z,22.67
2018-04-22T04:14:42.032Z,22.03
2018-04-22T04:17:08.674Z,22.17
2018-04-22T04:19:47.601Z,21.93
2018-04-22T04:22:25.846Z,21.87
2018-04-22T04:28:03.813Z,22.87
2018-04-22T04:30:31.700Z,23.03
2018-04-22T04:32:58.020Z,23.67
2018-04-22T04:35:24.054Z,23.07
2018-04-22T04:37:50.075Z,23.17
2018-04-22T04:40:16.085Z,23.87
2018-04-22T04:42:42.130Z,23.03
2018-04-22T04:45:08.185Z,23.43
2018-04-22T04:47:34.220Z,24.00
2018-04-22T04:50:00.227Z,24.03
2018-04-22T04:52:26.262Z,24.70
2018-04-22T04:54:52.323Z,24.03
2018-04-22T04:57:18.373Z,23.00
2018-04-22T04:59:44.394Z,24.80
2018-04-22T05:02:10.839Z,24.20
2018-04-22T05:04:36.861Z,24.40
2018-04-22T05:07:02.894Z,24.70
2018-04-22T05:09:28.950Z,24.10
2018-04-22T05:11:54.961Z,24.97
2018-04-22T05:14:21.163Z,26.23
2018-04-22T05:16:47.172Z,24.40
2018-04-22T05:19:13.209Z,26.30
2018-04-22T05:21:39.438Z,24.70
2018-04-22T05:24:05.457Z,25.10
2018-04-22T05:26:31.474Z,25.33
2018-04-22T05:28:57.513Z,24.97
2018-04-22T05:31:23.573Z,26.10
2018-04-22T05:33:50.090Z,25.60
2018-04-22T05:36:16.141Z,26.43
2018-04-22T05:38:42.145Z,25.50
2018-04-22T05:41:08.185Z,26.23
2018-04-22T05:43:34.220Z,26.13
2018-04-22T05:46:00.289Z,26.43
2018-04-22T05:48:26.293Z,27.20
2018-04-22T05:50:52.321Z,26.73
2018-04-22T05:53:18.486Z,26.73
2018-04-22T05:55:44.536Z,27.03
2018-04-22T05:58:10.545Z,27.73
2018-04-22T06:00:36.952Z,27.00
2018-04-22T06:03:02.998Z,27.00
2018-04-22T06:05:29.013Z,28.83
2018-04-22T06:07:55.362Z,28.20
2018-04-22T06:10:21.402Z,27.53
2018-04-22T06:12:47.437Z,28.80
2018-04-22T06:15:14.219Z,28.47
2018-04-22T06:17:40.249Z,28.73
2018-04-22T06:20:06.293Z,27.83
2018-04-22T06:22:32.316Z,28.30
2018-04-22T06:24:58.493Z,31.17
2018-04-22T06:27:24.514Z,30.13
2018-04-22T06:29:50.555Z,29.93
2018-04-22T06:32:16.657Z,30.20
2018-04-22T06:34:43.409Z,29.63
2018-04-22T06:37:09.572Z,30.13
2018-04-22T06:39:35.663Z,32.37
2018-04-22T06:42:01.689Z,32.50
2018-04-22T06:44:27.746Z,33.37
2018-04-22T06:46:53.787Z,32.33
2018-04-22T06:49:20.445Z,32.97
2018-04-22T06:51:46.477Z,33.57
2018-04-22T06:54:12.501Z,33.03
2018-04-22T06:56:39.077Z,34.37
2018-04-22T06:59:05.126Z,35.17
2018-04-22T07:01:31.165Z,33.83
2018-04-22T07:03:57.229Z,34.43
2018-04-22T07:06:23.265Z,34.23
2018-04-22T07:08:49.297Z,35.23
2018-04-22T07:11:16.045Z,34.73
2018-04-22T07:13:42.137Z,35.80
2018-04-22T07:16:08.161Z,35.50
2018-04-22T07:18:35.063Z,36.43
2018-04-22T07:21:01.098Z,36.00
2018-04-22T07:23:27.145Z,34.00
2018-04-22T07:25:53.397Z,36.33
2018-04-22T07:28:19.717Z,36.07
2018-04-22T07:30:45.788Z,35.20
2018-04-22T07:33:11.853Z,35.87
2018-04-22T07:35:37.869Z,36.87
2018-04-22T07:38:03.977Z,36.90
2018-04-22T07:40:30.181Z,35.87
2018-04-22T07:42:56.210Z,35.70
2018-04-22T07:45:22.252Z,35.50
2018-04-22T07:47:48.287Z,35.83
2018-04-22T07:50:14.377Z,39.03
2018-04-22T07:52:40.705Z,38.50
2018-04-22T07:55:06.740Z,39.03
2018-04-22T07:57:32.775Z,36.83
2018-04-22T07:59:58.810Z,38.17
2018-04-22T08:02:24.840Z,37.70
2018-04-22T08:04:50.881Z,39.43
2018-04-22T08:07:17.671Z,39.37
2018-04-22T08:09:43.694Z,37.87
2018-04-22T08:12:09.713Z,40.10
2018-04-22T08:14:35.928Z,39.50
2018-04-22T08:17:02.587Z,39.53
2018-04-22T08:19:28.649Z,37.77
2018-04-22T08:21:55.041Z,39.77
2018-04-22T08:24:21.189Z,37.63
2018-04-22T08:26:47.213Z,39.13
2018-04-22T08:29:13.274Z,37.27
2018-04-22T08:31:39.329Z,38.63
2018-04-22T08:34:05.783Z,38.13
2018-04-22T08:36:31.828Z,35.73
2018-04-22T08:38:57.846Z,36.60
2018-04-22T08:41:23.914Z,37.20
2018-04-22T08:43:50.012Z,37.63
2018-04-22T08:46:16.041Z,37.47
2018-04-22T08:48:42.060Z,38.10
2018-04-22T08:51:08.077Z,37.40
2018-04-22T08:53:34.289Z,35.40
2018-04-22T08:56:00.378Z,37.80
2018-04-22T08:58:26.399Z,37.70
2018-04-22T09:00:52.413Z,36.70
2018-04-22T09:03:18.458Z,36.60
2018-04-22T09:05:44.861Z,35.33
2018-04-22T09:08:10.925Z,34.27
2018-04-22T09:10:36.956Z,36.03
2018-04-22T09:13:03.006Z,35.27
2018-04-22T09:15:29.046Z,39.23
2018-04-22T09:17:55.117Z,37.27
2018-04-22T09:20:21.138Z,39.37
2018-04-22T09:22:47.193Z,38.57
2018-04-22T09:25:13.389Z,36.47
2018-04-22T09:27:39.418Z,35.50
2018-04-22T09:30:05.761Z,35.40
2018-04-22T09:32:31.841Z,35.60
2018-04-22T09:34:57.892Z,36.00
2018-04-22T09:37:24.746Z,36.60
2018-04-22T09:39:50.788Z,35.30
2018-04-22T09:42:17.317Z,33.60
2018-04-22T09:44:44.165Z,34.70
2018-04-22T09:47:10.230Z,33.37
2018-04-22T09:49:36.381Z,35.83
2018-04-22T09:52:02.412Z,33.07
2018-04-22T09:54:28.439Z,32.73
2018-04-22T09:56:54.609Z,33.60
2018-04-22T09:59:20.760Z,29.53
2018-04-22T10:01:46.781Z,29.93
2018-04-22T10:04:12.809Z,29.20
2018-04-22T10:06:39.202Z,25.73
2018-04-22T10:09:05.285Z,24.03
2018-04-22T10:11:32.073Z,25.10
2018-04-22T10:13:58.208Z,23.90
2018-04-22T10:16:24.250Z,21.37
2018-04-22T10:18:50.281Z,21.93
2018-04-22T10:21:16.330Z,19.70
2018-04-22T10:23:42.421Z,16.70
2018-04-22T10:26:08.441Z,14.73
2018-04-22T10:28:34.454Z,14.57
2018-04-22T10:31:00.498Z,16.03
2018-04-22T10:33:26.893Z,14.87
2018-04-22T10:35:53.062Z,12.97
2018-04-22T10:38:19.165Z,13.77
2018-04-22T10:40:45.221Z,13.33
2018-04-22T10:43:11.559Z,14.07
2018-04-22T10:45:37.605Z,11.30
2018-04-22T10:48:03.657Z,12.53
2018-04-22T10:50:29.791Z,12.40
2018-04-22T10:52:55.971Z,12.97
2018-04-22T10:55:22.749Z,12.73
2018-04-22T10:57:49.004Z,11.10
2018-04-22T11:00:15.117Z,10.93
2018-04-22T11:02:41.180Z,11.43
2018-04-22T11:05:07.232Z,10.83
2018-04-22T11:07:33.276Z,9.60
2018-04-22T11:09:59.325Z,9.00
2018-04-22T11:12:25.653Z,9.03
2018-04-22T11:14:51.993Z,9.17
2018-04-22T11:17:18.035Z,8.60
2018-04-22T11:19:44.125Z,7.50
2018-04-22T11:22:10.196Z,6.90
2018-04-22T11:24:36.206Z,7.30
2018-04-22T11:27:02.241Z,6.33
2018-04-22T11:29:28.282Z,6.17
2018-04-22T11:31:54.470Z,5.80
2018-04-22T11:34:20.514Z,6.10
2018-04-22T11:36:46.842Z,5.70
2018-04-22T11:39:12.855Z,5.83
2018-04-22T11:41:39.125Z,5.43
2018-04-22T11:44:05.177Z,4.90
2018-04-22T11:46:31.238Z,7.90
2018-04-22T11:48:57.289Z,7.90
2018-04-22T11:51:23.486Z,8.07
2018-04-22T11:53:49.514Z,8.97
2018-04-22T11:56:15.557Z,8.40
2018-04-22T11:58:41.622Z,8.53
2018-04-22T12:01:07.653Z,6.70
2018-04-22T12:03:33.790Z,5.20
2018-04-22T12:05:59.821Z,5.33
2018-04-22T12:08:25.901Z,6.37
2018-04-22T12:10:51.978Z,7.80
2018-04-22T12:13:18.027Z,8.57
2018-04-22T12:15:44.034Z,8.27
2018-04-22T12:18:10.081Z,8.13
2018-04-22T12:20:36.511Z,8.10
2018-04-22T12:23:02.551Z,9.20
2018-04-22T12:25:29.325Z,9.60
2018-04-22T12:27:55.371Z,7.73
2018-04-22T12:30:21.691Z,8.27
2018-04-22T12:32:47.856Z,7.70
2018-04-22T12:35:13.932Z,6.90
2018-04-22T12:37:40.038Z,6.87
2018-04-22T12:40:06.108Z,6.17
2018-04-22T12:42:32.136Z,6.30
2018-04-22T12:44:58.193Z,6.83
2018-04-22T12:47:24.342Z,6.70
2018-04-22T12:49:50.386Z,6.47
2018-04-22T12:52:16.566Z,6.73
2018-04-22T12:54:42.602Z,5.90
2018-04-22T12:57:08.793Z,5.90
2018-04-22T12:59:34.838Z,5.50
2018-04-22T13:02:00.993Z,5.33
2018-04-22T13:04:27.161Z,4.80
2018-04-22T13:06:53.192Z,4.63
2018-04-22T13:09:19.214Z,4.60
2018-04-22T13:11:45.770Z,4.40
2018-04-22T13:14:12.238Z,3.90
2018-04-22T13:16:38.290Z,3.90
2018-04-22T13:19:04.394Z,4.13
2018-04-22T13:21:30.424Z,3.60
2018-04-22T13:23:56.481Z,3.80
2018-04-22T13:26:22.522Z,4.13
2018-04-22T13:28:48.545Z,3.97
2018-04-22T13:31:14.639Z,3.50
2018-04-22T13:33:40.728Z,4.17
2018-04-22T13:36:06.820Z,4.30
2018-04-22T13:38:32.853Z,3.77
2018-04-22T13:40:58.892Z,3.60
2018-04-22T13:43:24.933Z,3.70
2018-04-22T13:45:51.018Z,3.73
2018-04-22T13:48:17.137Z,3.43
2018-04-22T13:50:43.165Z,3.60
2018-04-22T13:53:09.204Z,4.00
2018-04-22T13:55:35.226Z,3.97
2018-04-22T13:58:01.514Z,3.87
2018-04-22T14:00:27.686Z,3.97
2018-04-22T14:02:53.707Z,3.90
2018-04-22T14:05:19.740Z,4.10
2018-04-22T14:07:45.793Z,3.77
2018-04-22T14:10:11.864Z,3.80
2018-04-22T14:12:38.056Z,4.20
2018-04-22T14:15:04.090Z,4.20
2018-04-22T14:17:30.138Z,3.73
2018-04-22T14:19:56.173Z,3.70
2018-04-22T14:22:22.193Z,3.70
2018-04-22T14:24:48.289Z,3.70
2018-04-22T14:27:14.314Z,4.00
2018-04-22T14:29:40.364Z,4.20
2018-04-22T14:32:06.405Z,4.20
2018-04-22T14:34:32.416Z,4.47
2018-04-22T14:36:59.125Z,4.37
2018-04-22T14:39:25.196Z,4.63
2018-04-22T14:41:51.917Z,4.13
2018-04-22T14:44:30.390Z,4.23
2018-04-22T14:46:56.424Z,4.13
2018-04-22T14:49:22.489Z,4.43
2018-04-22T14:51:48.785Z,4.37
2018-04-22T14:54:14.834Z,4.40
2018-04-22T14:56:40.845Z,4.90
2018-04-22T14:59:06.862Z,5.27
2018-04-22T15:01:33.034Z,4.87
2018-04-22T15:03:59.074Z,5.10
2018-04-22T15:06:25.113Z,4.90
2018-04-22T15:08:51.529Z,4.57
2018-04-22T15:11:17.621Z,6.00
2018-04-22T15:13:44.417Z,6.20
2018-04-22T15:16:10.468Z,5.90
2018-04-22T15:18:36.485Z,6.20
2018-04-22T15:21:02.533Z,6.00
2018-04-22T15:23:29.762Z,6.50
2018-04-22T15:25:55.810Z,6.40
2018-04-22T15:28:21.836Z,6.83
2018-04-22T15:30:47.868Z,7.20
2018-04-22T15:33:13.899Z,6.37
2018-04-22T15:35:39.961Z,6.23
2018-04-22T15:38:06.032Z,6.63
2018-04-22T15:40:32.045Z,6.00
2018-04-22T15:42:58.674Z,5.87
2018-04-22T15:45:25.193Z,5.60
2018-04-22T15:47:51.269Z,5.00
2018-04-22T15:50:17.936Z,5.13
2018-04-22T15:52:44.806Z,4.90
2018-04-22T15:55:10.818Z,5.30
2018-04-22T15:57:36.878Z,5.77
2018-04-22T16:00:02.906Z,5.30
2018-04-22T16:02:29.429Z,5.33
2018-04-22T16:04:55.489Z,5.50
2018-04-22T16:07:21.526Z,5.60
2018-04-22T16:09:48.122Z,5.20
2018-04-22T16:12:14.193Z,5.47
2018-04-22T16:14:40.987Z,5.33
2018-04-22T16:17:07.019Z,5.77
2018-04-22T16:19:33.049Z,5.97
2018-04-22T16:21:59.110Z,5.80
2018-04-22T16:24:25.889Z,5.13
2018-04-22T16:26:51.940Z,5.47
2018-04-22T16:29:17.955Z,5.37
2018-04-22T16:31:44.802Z,6.30
2018-04-22T16:34:10.838Z,13.13
2018-04-22T16:36:36.926Z,16.17
2018-04-22T16:39:02.968Z,14.33
2018-04-22T16:41:29.201Z,11.00
2018-04-22T16:43:55.168Z,10.33
2018-04-22T16:46:21.184Z,9.27
2018-04-22T16:48:47.285Z,8.97
2018-04-22T16:51:13.313Z,8.53
2018-04-22T16:53:39.385Z,8.90
2018-04-22T16:56:05.413Z,8.73
2018-04-22T16:58:31.455Z,9.73
2018-04-22T17:00:58.098Z,9.00
2018-04-22T17:03:24.109Z,9.80
2018-04-22T17:05:50.189Z,8.80
2018-04-22T17:08:16.201Z,9.60
2018-04-22T17:10:42.255Z,9.47
2018-04-22T17:13:09.099Z,9.47
2018-04-22T17:15:35.245Z,9.67
2018-04-22T17:18:01.267Z,9.70
2018-04-22T17:20:27.413Z,9.97
2018-04-22T17:22:53.441Z,9.33
2018-04-22T17:25:19.693Z,10.17
2018-04-22T17:27:45.745Z,9.37
2018-04-22T17:30:12.437Z,10.03
2018-04-22T17:32:38.457Z,9.80
2018-04-22T17:35:04.480Z,9.93
2018-04-22T17:37:30.601Z,9.90
2018-04-22T17:39:56.653Z,10.37
2018-04-22T17:42:22.689Z,10.33
2018-04-22T17:44:48.713Z,11.73
2018-04-22T17:47:14.736Z,10.67
2018-04-22T17:49:40.790Z,10.50
2018-04-22T17:52:06.877Z,11.57
2018-04-22T17:54:32.909Z,11.30
2018-04-22T17:56:58.957Z,11.70
2018-04-22T17:59:25.035Z,11.87
2018-04-22T18:01:51.805Z,11.40
2018-04-22T18:04:17.850Z,12.63
2018-04-22T18:06:43.914Z,11.93
2018-04-22T18:09:09.950Z,13.27
2018-04-22T18:11:36.098Z,11.60
2018-04-22T18:14:02.161Z,11.97
2018-04-22T18:16:28.948Z,12.13
2018-04-22T18:18:55.048Z,12.13
2018-04-22T18:21:21.077Z,13.33
2018-04-22T18:23:47.136Z,13.27
2018-04-22T18:26:13.178Z,12.67
2018-04-22T18:28:39.342Z,13.40
2018-04-22T18:31:05.361Z,12.63
2018-04-22T18:33:32.136Z,15.27
2018-04-22T18:35:58.162Z,14.03
2018-04-22T18:38:24.222Z,15.17
2018-04-22T18:40:50.322Z,14.80
2018-04-22T18:43:16.382Z,16.07
2018-04-22T18:45:42.405Z,17.03
2018-04-22T18:48:08.449Z,15.33
2018-04-22T18:50:34.705Z,15.83
2018-04-22T18:53:00.805Z,16.00
2018-04-22T18:55:26.862Z,17.13
2018-04-22T18:57:52.873Z,16.27
2018-04-22T19:00:18.899Z,18.00
2018-04-22T19:02:44.945Z,17.33
2018-04-22T19:05:11.048Z,18.37
2018-04-22T19:07:37.084Z,17.83
2018-04-22T19:10:03.107Z,17.83
2018-04-22T19:12:29.541Z,17.97
2018-04-22T19:14:55.561Z,19.40
2018-04-22T19:17:21.790Z,18.63
2018-04-22T19:19:47.826Z,18.23
2018-04-22T19:22:14.152Z,17.37
2018-04-22T19:24:40.219Z,18.97
2018-04-22T19:27:06.229Z,18.67
2018-04-22T19:29:32.674Z,17.17
2018-04-22T19:31:58.693Z,17.33
2018-04-22T19:34:24.718Z,17.03
2018-04-22T19:36:51.001Z,17.80
2018-04-22T19:39:17.028Z,18.20
2018-04-22T19:41:43.079Z,17.03
2018-04-22T19:44:09.109Z,17.00
2018-04-22T19:46:35.124Z,17.77
2018-04-22T19:49:01.345Z,16.23
2018-04-22T19:51:27.375Z,18.97
2018-04-22T19:53:53.453Z,20.00
2018-04-22T19:56:20.230Z,18.13
2018-04-22T19:58:46.266Z,17.50
2018-04-22T20:01:12.330Z,17.87
2018-04-22T20:03:38.358Z,18.40
2018-04-22T20:06:05.166Z,17.53
2018-04-22T20:08:31.246Z,18.47
2018-04-22T20:10:57.280Z,17.33
2018-04-22T20:13:23.474Z,17.27
2018-04-22T20:15:49.674Z,19.10
2018-04-22T20:18:15.988Z,19.43
2018-04-22T20:20:42.045Z,19.63
2018-04-22T20:23:08.047Z,19.17
2018-04-22T20:25:34.449Z,20.77
2018-04-22T20:28:00.472Z,20.60
2018-04-22T20:30:27.848Z,19.83
2018-04-22T20:32:54.682Z,20.00
2018-04-22T20:35:20.754Z,21.67
2018-04-22T20:37:46.811Z,20.47
2018-04-22T20:40:12.825Z,22.67
2018-04-22T20:42:38.849Z,21.53
2018-04-22T20:45:05.665Z,21.63
2018-04-22T20:47:31.701Z,22.67
2018-04-22T20:49:58.685Z,25.10
2018-04-22T20:52:24.717Z,23.47
2018-04-22T20:54:50.737Z,23.03
2018-04-22T20:57:16.797Z,23.33
2018-04-22T20:59:42.825Z,22.40
2018-04-22T21:02:08.999Z,23.07
2018-04-22T21:04:35.240Z,23.30
2018-04-22T21:07:01.283Z,23.17
2018-04-22T21:09:27.433Z,24.30
2018-04-22T21:11:53.546Z,21.97
2018-04-22T21:14:19.620Z,22.67
2018-04-22T21:16:45.645Z,22.37
2018-04-22T21:19:12.422Z,22.97
2018-04-22T21:21:38.841Z,21.93
2018-04-22T21:24:04.873Z,24.13
2018-04-22T21:26:30.935Z,24.43
2018-04-22T21:28:56.969Z,24.73
2018-04-22T21:31:23.017Z,24.00
2018-04-22T21:33:49.802Z,26.63
2018-04-22T21:36:16.221Z,25.90
2018-04-22T21:38:42.292Z,26.03
2018-04-22T21:41:08.338Z,25.37
2018-04-22T21:43:35.113Z,28.70
2018-04-22T21:46:01.533Z,27.33
2018-04-22T21:48:27.569Z,27.77
2018-04-22T21:50:53.646Z,28.13
2018-04-22T21:53:19.693Z,28.33
2018-04-22T21:55:45.717Z,27.27
2018-04-22T21:58:12.490Z,29.10
2018-04-22T22:00:38.586Z,28.03
2018-04-22T22:03:05.978Z,28.30
2018-04-22T22:05:32.011Z,29.10
2018-04-22T22:07:58.078Z,28.03
2018-04-22T22:10:24.848Z,29.57
2018-04-22T22:12:50.942Z,28.50
2018-04-22T22:15:17.042Z,31.57
2018-04-22T22:17:43.066Z,32.47
2018-04-22T22:20:09.121Z,29.97
2018-04-22T22:22:35.157Z,32.23
2018-04-22T22:25:01.201Z,32.93
2018-04-22T22:27:27.257Z,35.93
2018-04-22T22:29:54.037Z,37.77
2018-04-22T22:32:20.062Z,39.50
2018-04-22T22:34:46.109Z,34.80
2018-04-22T22:37:12.122Z,27.90
2018-04-22T22:39:38.428Z,21.43
2018-04-22T22:42:04.494Z,21.97
2018-04-22T22:44:30.596Z,20.07
2018-04-22T22:46:56.677Z,15.90
2018-04-22T22:49:22.701Z,14.77
2018-04-22T22:51:49.050Z,13.43
2018-04-22T22:54:15.497Z,15.13
2018-04-22T22:56:41.517Z,12.50
2018-04-22T22:59:07.554Z,11.73
2018-04-22T23:01:33.580Z,9.93
2018-04-22T23:03:59.628Z,9.40
2018-04-22T23:06:25.671Z,8.67
2018-04-22T23:08:51.696Z,8.40
2018-04-22T23:11:17.913Z,8.20
2018-04-22T23:13:43.937Z,8.20
2018-04-22T23:16:10.001Z,7.80
2018-04-22T23:18:36.168Z,9.10
2018-04-22T23:21:02.237Z,9.57
2018-04-22T23:23:28.278Z,9.17
2018-04-22T23:25:54.318Z,8.47
2018-04-22T23:28:20.488Z,9.23
2018-04-22T23:30:46.520Z,9.40
2018-04-22T23:33:12.577Z,8.90
2018-04-22T23:35:38.901Z,10.50
2018-04-22T23:38:04.914Z,11.77
2018-04-22T23:40:30.978Z,11.73
2018-04-22T23:42:57.054Z,13.03
2018-04-22T23:45:23.209Z,13.43
2018-04-22T23:47:49.234Z,12.33
2018-04-22T23:50:15.269Z,11.97
2018-04-22T23:52:41.292Z,13.37
2018-04-22T23:55:07.342Z,12.60
2018-04-22T23:57:33.417Z,13.17
2018-04-22T23:59:59.457Z,12.83
